createdAt,value
2019-03-21T00:01:02.786Z,9.80
2019-03-21T00:03:51.205Z,9.90
2019-03-21T00:06:38.049Z,10.40
2019-03-21T00:09:24.366Z,9.37
2019-03-21T00:12:10.666Z,10.27
2019-03-21T00:15:30.046Z,10.30
2019-03-21T00:18:17.416Z,11.10
2019-03-21T00:21:03.853Z,10.70
2019-03-21T00:23:50.444Z,10.87
2019-03-21T00:26:37.725Z,10.20
2019-03-21T00:29:24.848Z,11.00
2019-03-21T00:32:11.307Z,10.87
2019-03-21T00:34:57.279Z,11.87
2019-03-21T00:37:44.027Z,10.40
2019-03-21T00:40:33.070Z,10.93
2019-03-21T00:43:19.163Z,10.87
2019-03-21T00:46:07.973Z,10.33
2019-03-21T00:48:54.345Z,11.80
2019-03-21T00:51:41.133Z,11.13
2019-03-21T00:54:27.761Z,13.00
2019-03-21T00:57:14.164Z,11.37
2019-03-21T01:00:00.784Z,10.83
2019-03-21T01:02:47.267Z,10.53
2019-03-21T01:05:33.459Z,11.50
2019-03-21T01:08:20.076Z,10.33
2019-03-21T01:11:07.236Z,10.97
2019-03-21T01:13:53.500Z,11.33
2019-03-21T01:16:39.653Z,10.60
2019-03-21T01:19:29.456Z,10.57
2019-03-21T01:22:15.583Z,10.93
2019-03-21T01:25:01.666Z,11.53
2019-03-21T01:27:47.895Z,11.40
2019-03-21T01:30:34.520Z,11.87
2019-03-21T01:33:20.576Z,11.47
2019-03-21T01:36:06.836Z,10.83
2019-03-21T01:38:53.268Z,12.17
2019-03-21T01:41:39.412Z,11.27
2019-03-21T01:44:25.529Z,12.60
2019-03-21T01:47:12.391Z,12.30
2019-03-21T01:49:58.455Z,13.27
2019-03-21T01:52:44.648Z,12.53
2019-03-21T01:55:31.263Z,12.53
2019-03-21T01:58:17.413Z,11.57
2019-03-21T02:01:04.279Z,12.17
2019-03-21T02:03:50.720Z,13.10
2019-03-21T02:06:36.791Z,13.30
2019-03-21T02:09:22.844Z,13.43
2019-03-21T02:12:09.780Z,13.63
2019-03-21T02:14:56.008Z,14.50
2019-03-21T02:17:42.281Z,15.60
2019-03-21T02:20:29.976Z,15.40
2019-03-21T02:23:16.253Z,14.30
2019-03-21T02:26:02.628Z,15.10
2019-03-21T02:28:49.104Z,15.80
2019-03-21T02:31:35.398Z,16.80
2019-03-21T02:34:21.776Z,16.83
2019-03-21T02:37:08.733Z,16.77
2019-03-21T02:39:59.920Z,16.93
2019-03-21T02:42:44.094Z,18.50
2019-03-21T02:45:30.329Z,17.00
2019-03-21T02:48:16.472Z,17.60
2019-03-21T02:51:03.035Z,16.60
2019-03-21T02:53:49.123Z,17.83
2019-03-21T02:56:35.594Z,18.97
2019-03-21T02:59:22.254Z,18.13
2019-03-21T03:02:08.657Z,19.30
2019-03-21T03:04:54.707Z,17.63
2019-03-21T03:07:41.733Z,18.17
2019-03-21T03:10:33.632Z,19.00
2019-03-21T03:13:19.814Z,17.40
2019-03-21T03:16:05.975Z,17.87
2019-03-21T03:18:52.235Z,18.33
2019-03-21T03:21:39.758Z,18.30
2019-03-21T03:24:28.746Z,18.27
2019-03-21T03:27:15.211Z,19.00
2019-03-21T03:30:02.379Z,20.50
2019-03-21T03:32:48.389Z,18.83
2019-03-21T03:35:34.416Z,20.90
2019-03-21T03:38:21.672Z,18.97
2019-03-21T03:41:08.624Z,19.63
2019-03-21T03:43:54.630Z,19.97
2019-03-21T03:46:41.310Z,19.00
2019-03-21T03:49:27.552Z,18.87
2019-03-21T03:52:13.660Z,19.47
2019-03-21T03:55:00.536Z,17.97
2019-03-21T03:57:47.566Z,19.80
2019-03-21T04:00:33.515Z,19.30
2019-03-21T04:03:20.602Z,18.00
2019-03-21T04:06:06.929Z,18.90
2019-03-21T04:08:53.129Z,20.03
2019-03-21T04:11:40.192Z,18.07
2019-03-21T04:14:26.955Z,17.23
2019-03-21T04:17:13.031Z,18.30
2019-03-21T04:19:59.761Z,18.20
2019-03-21T04:22:47.494Z,19.30
2019-03-21T04:25:37.136Z,17.57
2019-03-21T04:28:23.988Z,19.37
2019-03-21T04:31:10.183Z,19.27
2019-03-21T04:33:58.060Z,18.73
2019-03-21T04:36:44.625Z,19.13
2019-03-21T04:39:31.057Z,19.53
2019-03-21T04:42:17.237Z,18.53
2019-03-21T04:45:04.355Z,19.03
2019-03-21T04:47:50.709Z,19.33
2019-03-21T04:50:37.504Z,19.23
2019-03-21T04:53:23.473Z,20.67
2019-03-21T04:56:09.555Z,19.43
2019-03-21T04:58:56.168Z,19.03
2019-03-21T05:01:42.397Z,19.80
2019-03-21T05:04:28.559Z,19.73
2019-03-21T05:07:15.957Z,20.20
2019-03-21T05:10:02.253Z,19.43
2019-03-21T05:12:48.165Z,19.90
2019-03-21T05:15:36.457Z,20.60
2019-03-21T05:18:26.569Z,20.70
2019-03-21T05:21:14.284Z,21.10
2019-03-21T05:24:00.800Z,19.43
2019-03-21T05:26:46.814Z,21.07
2019-03-21T05:29:33.105Z,20.43
2019-03-21T05:32:19.394Z,21.30
2019-03-21T05:35:06.265Z,20.00
2019-03-21T05:37:53.177Z,21.97
2019-03-21T05:40:39.536Z,21.40
2019-03-21T05:43:30.293Z,19.23
2019-03-21T05:46:26.692Z,21.10
2019-03-21T05:49:06.507Z,20.30
2019-03-21T05:51:52.793Z,21.40
2019-03-21T05:54:39.669Z,19.97
2019-03-21T05:57:26.284Z,20.73
2019-03-21T06:00:16.786Z,20.53
2019-03-21T06:03:03.385Z,21.80
2019-03-21T06:05:53.098Z,21.57
2019-03-21T06:08:39.543Z,20.73
2019-03-21T06:11:26.277Z,21.20
2019-03-21T06:14:12.882Z,21.33
2019-03-21T06:16:59.612Z,20.13
2019-03-21T06:19:54.387Z,20.33
2019-03-21T06:23:14.954Z,20.77
2019-03-21T06:26:34.968Z,25.23
2019-03-21T06:29:21.097Z,23.73
2019-03-21T06:32:07.194Z,24.13
2019-03-21T06:34:54.328Z,23.20
2019-03-21T06:37:40.492Z,22.80
2019-03-21T06:40:26.713Z,20.67
2019-03-21T06:43:13.001Z,22.00
2019-03-21T06:45:59.934Z,27.07
2019-03-21T06:49:01.792Z,33.67
2019-03-21T06:51:48.850Z,21.70
2019-03-21T06:54:34.825Z,23.10
2019-03-21T06:57:21.631Z,25.07
2019-03-21T07:00:08.130Z,22.67
2019-03-21T07:02:54.339Z,22.20
2019-03-21T07:05:41.122Z,51.93
2019-03-21T07:08:27.314Z,25.60
2019-03-21T07:11:13.834Z,21.87
2019-03-21T07:14:00.221Z,22.30
2019-03-21T07:16:46.555Z,23.87
2019-03-21T07:19:32.858Z,20.73
2019-03-21T07:22:19.142Z,22.50
2019-03-21T07:25:06.672Z,21.40
2019-03-21T07:27:52.625Z,21.67
2019-03-21T07:30:40.038Z,20.60
2019-03-21T07:33:26.362Z,20.67
2019-03-21T07:36:13.131Z,19.93
2019-03-21T07:38:59.198Z,20.43
2019-03-21T07:41:45.517Z,19.83
2019-03-21T07:44:32.134Z,18.40
2019-03-21T07:47:18.393Z,18.70
2019-03-21T07:50:06.761Z,18.97
2019-03-21T07:52:52.992Z,18.90
2019-03-21T07:55:39.052Z,19.63
2019-03-21T07:58:25.175Z,18.43
2019-03-21T08:01:11.378Z,19.63
2019-03-21T08:03:57.639Z,20.30
2019-03-21T08:06:46.072Z,20.53
2019-03-21T08:09:32.967Z,21.87
2019-03-21T08:12:19.336Z,20.70
2019-03-21T08:15:07.871Z,19.97
2019-03-21T08:17:54.051Z,20.17
2019-03-21T08:20:40.191Z,21.73
2019-03-21T08:23:26.368Z,21.70
2019-03-21T08:26:12.380Z,20.37
2019-03-21T08:28:59.812Z,21.00
2019-03-21T08:31:46.045Z,21.30
2019-03-21T08:34:32.168Z,21.87
2019-03-21T08:37:23.080Z,20.20
2019-03-21T08:40:08.963Z,21.77
2019-03-21T08:42:56.882Z,20.60
2019-03-21T08:45:44.509Z,20.07
2019-03-21T08:48:30.812Z,21.13
2019-03-21T08:51:17.320Z,21.07
2019-03-21T08:54:03.682Z,21.20
2019-03-21T08:56:50.246Z,21.37
2019-03-21T08:59:36.844Z,20.37
2019-03-21T09:02:23.507Z,20.87
2019-03-21T09:05:10.017Z,21.90
2019-03-21T09:07:56.904Z,20.70
2019-03-21T09:10:44.024Z,20.03
2019-03-21T09:13:30.313Z,21.43
2019-03-21T09:16:16.788Z,20.60
2019-03-21T09:19:02.776Z,19.70
2019-03-21T09:21:49.399Z,20.43
2019-03-21T09:24:35.613Z,21.17
2019-03-21T09:27:21.905Z,20.83
2019-03-21T09:30:10.809Z,20.47
2019-03-21T09:33:04.589Z,19.87
2019-03-21T09:35:51.272Z,21.03
2019-03-21T09:38:37.360Z,18.73
2019-03-21T09:41:26.284Z,20.10
2019-03-21T09:44:12.737Z,20.20
2019-03-21T09:46:58.764Z,19.83
2019-03-21T09:49:45.031Z,19.60
2019-03-21T09:52:32.687Z,19.57
2019-03-21T09:55:19.252Z,20.10
2019-03-21T09:58:05.263Z,18.43
2019-03-21T10:00:51.696Z,18.87
2019-03-21T10:03:37.760Z,19.90
2019-03-21T10:06:24.128Z,19.93
2019-03-21T10:09:11.974Z,19.23
2019-03-21T10:12:08.867Z,19.17
2019-03-21T10:14:55.988Z,20.33
2019-03-21T10:17:42.025Z,20.23
2019-03-21T10:20:28.842Z,19.00
2019-03-21T10:23:15.842Z,20.87
2019-03-21T10:26:02.418Z,19.87
2019-03-21T10:29:00.277Z,20.43
2019-03-21T10:31:47.818Z,19.07
2019-03-21T10:34:34.662Z,19.47
2019-03-21T10:37:21.125Z,19.00
2019-03-21T10:40:07.082Z,19.83
2019-03-21T10:42:53.472Z,20.43
2019-03-21T10:45:42.182Z,17.03
2019-03-21T10:48:37.433Z,18.60
2019-03-21T10:51:24.156Z,20.70
2019-03-21T10:54:10.138Z,19.83
2019-03-21T10:56:57.095Z,20.23
2019-03-21T10:59:43.547Z,19.80
2019-03-21T11:02:29.702Z,17.37
2019-03-21T11:05:15.860Z,17.53
2019-03-21T11:08:02.160Z,17.97
2019-03-21T11:10:48.532Z,16.27
2019-03-21T11:13:34.907Z,16.57
2019-03-21T11:16:20.786Z,15.53
2019-03-21T11:19:07.373Z,15.30
2019-03-21T11:21:53.909Z,16.20
2019-03-21T11:24:40.257Z,15.77
2019-03-21T11:27:26.605Z,16.40
2019-03-21T11:30:16.704Z,17.53
2019-03-21T11:33:04.223Z,15.43
2019-03-21T11:35:50.521Z,16.87
2019-03-21T11:38:37.025Z,15.40
2019-03-21T11:41:23.958Z,16.00
2019-03-21T11:44:11.071Z,15.57
2019-03-21T11:46:57.860Z,16.70
2019-03-21T11:49:44.044Z,16.47
2019-03-21T11:52:30.535Z,17.07
2019-03-21T11:55:16.952Z,17.43
2019-03-21T11:58:03.532Z,17.77
2019-03-21T12:00:49.978Z,17.83
2019-03-21T12:03:36.793Z,19.53
2019-03-21T12:06:22.915Z,18.37
2019-03-21T12:09:09.062Z,17.73
2019-03-21T12:11:56.490Z,17.80
2019-03-21T12:14:43.910Z,16.50
2019-03-21T12:17:29.830Z,18.03
2019-03-21T12:20:37.230Z,15.03
2019-03-21T12:23:23.401Z,16.60
2019-03-21T12:26:09.818Z,16.47
2019-03-21T12:28:56.170Z,17.97
2019-03-21T12:31:42.322Z,17.37
2019-03-21T12:34:29.505Z,19.10
2019-03-21T12:37:16.522Z,17.87
2019-03-21T12:40:03.679Z,18.63
2019-03-21T12:42:49.971Z,19.97
2019-03-21T12:45:36.992Z,19.03
2019-03-21T12:48:22.954Z,16.97
2019-03-21T12:51:08.993Z,16.97
2019-03-21T12:53:55.385Z,17.10
2019-03-21T12:56:41.255Z,17.90
2019-03-21T12:59:30.413Z,17.70
2019-03-21T13:02:16.465Z,18.17
2019-03-21T13:05:03.696Z,17.43
2019-03-21T13:07:50.142Z,17.27
2019-03-21T13:10:36.466Z,19.20
2019-03-21T13:13:22.622Z,17.63
2019-03-21T13:16:09.625Z,17.60
2019-03-21T13:18:56.077Z,17.70
2019-03-21T13:21:42.539Z,17.87
2019-03-21T13:24:28.599Z,15.73
2019-03-21T13:27:15.060Z,17.50
2019-03-21T13:30:03.632Z,16.67
2019-03-21T13:32:49.612Z,16.77
2019-03-21T13:35:37.167Z,17.17
2019-03-21T13:38:23.534Z,15.90
2019-03-21T13:41:11.925Z,16.77
2019-03-21T13:43:57.943Z,15.73
2019-03-21T13:46:44.123Z,15.57
2019-03-21T13:49:30.205Z,15.63
2019-03-21T13:52:16.183Z,15.90
2019-03-21T13:55:02.382Z,15.37
2019-03-21T13:57:48.147Z,17.13
2019-03-21T14:00:36.135Z,16.77
2019-03-21T14:03:25.333Z,18.73
2019-03-21T14:06:11.143Z,17.10
2019-03-21T14:08:57.299Z,16.77
2019-03-21T14:11:43.946Z,18.17
2019-03-21T14:14:30.113Z,17.97
2019-03-21T14:17:21.877Z,17.43
2019-03-21T14:20:07.093Z,15.87
2019-03-21T14:22:53.034Z,16.77
2019-03-21T14:25:39.074Z,17.53
2019-03-21T14:28:25.274Z,17.23
2019-03-21T14:31:11.469Z,17.63
2019-03-21T14:33:58.290Z,16.63
2019-03-21T14:36:44.587Z,17.47
2019-03-21T14:39:31.047Z,19.97
2019-03-21T14:42:17.996Z,16.53
2019-03-21T14:45:05.407Z,17.50
2019-03-21T14:47:55.743Z,17.43
2019-03-21T14:50:42.708Z,23.80
2019-03-21T14:53:29.397Z,19.33
2019-03-21T14:56:16.160Z,23.93
2019-03-21T14:59:04.413Z,22.87
2019-03-21T15:01:50.646Z,18.80
2019-03-21T15:04:44.028Z,16.80
2019-03-21T15:07:39.320Z,17.33
2019-03-21T15:10:26.068Z,16.57
2019-03-21T15:13:12.218Z,19.50
2019-03-21T15:16:01.227Z,14.20
2019-03-21T15:18:47.684Z,15.63
2019-03-21T15:21:33.853Z,15.67
2019-03-21T15:24:25.388Z,18.33
2019-03-21T15:27:11.932Z,15.77
2019-03-21T15:29:58.236Z,16.70
2019-03-21T15:32:44.638Z,16.63
2019-03-21T15:35:30.854Z,18.43
2019-03-21T15:38:17.770Z,21.63
2019-03-21T15:41:04.334Z,17.47
2019-03-21T15:43:50.370Z,16.47
2019-03-21T15:46:36.620Z,15.93
2019-03-21T15:49:22.595Z,15.53
2019-03-21T15:52:08.980Z,14.43
2019-03-21T15:54:55.196Z,15.20
2019-03-21T15:57:42.281Z,14.67
2019-03-21T16:00:37.758Z,13.97
2019-03-21T16:03:36.104Z,13.13
2019-03-21T16:06:22.892Z,14.97
2019-03-21T16:09:09.612Z,14.27
2019-03-21T16:11:56.131Z,13.77
2019-03-21T16:14:43.272Z,14.23
2019-03-21T16:17:31.228Z,12.97
2019-03-21T16:20:17.624Z,13.93
2019-03-21T16:23:03.772Z,14.53
2019-03-21T16:25:52.317Z,13.97
2019-03-21T16:28:38.730Z,15.17
2019-03-21T16:31:25.423Z,14.83
2019-03-21T16:34:12.316Z,14.60
2019-03-21T16:36:58.438Z,14.90
2019-03-21T16:39:45.133Z,14.23
2019-03-21T16:42:31.231Z,15.03
2019-03-21T16:45:17.634Z,14.67
2019-03-21T16:48:04.449Z,13.87
2019-03-21T16:50:51.949Z,14.57
2019-03-21T16:53:38.043Z,14.17
2019-03-21T16:56:24.073Z,14.67
2019-03-21T16:59:10.929Z,15.93
2019-03-21T17:01:57.084Z,15.43
2019-03-21T17:04:43.388Z,16.40
2019-03-21T17:07:32.111Z,16.20
2019-03-21T17:10:18.411Z,15.77
2019-03-21T17:13:05.108Z,14.50
2019-03-21T17:15:52.706Z,15.13
2019-03-21T17:18:38.884Z,13.57
2019-03-21T17:21:25.007Z,14.40
2019-03-21T17:24:11.487Z,15.13
2019-03-21T17:26:57.709Z,14.90
2019-03-21T17:29:44.463Z,16.23
2019-03-21T17:32:30.554Z,15.07
2019-03-21T17:35:16.885Z,16.10
2019-03-21T17:38:04.839Z,15.20
2019-03-21T17:40:52.308Z,15.60
2019-03-21T17:43:38.501Z,15.37
2019-03-21T17:46:24.622Z,15.40
2019-03-21T17:49:15.840Z,16.07
2019-03-21T17:52:01.974Z,16.23
2019-03-21T17:54:48.747Z,15.87
2019-03-21T17:57:35.021Z,16.77
2019-03-21T18:00:24.109Z,17.03
2019-03-21T18:03:12.065Z,18.13
2019-03-21T18:05:58.491Z,19.10
2019-03-21T18:08:44.512Z,19.27
2019-03-21T18:11:32.183Z,21.17
2019-03-21T18:14:18.468Z,21.50
2019-03-21T18:17:07.451Z,21.57
2019-03-21T18:19:53.732Z,20.40
2019-03-21T18:22:40.656Z,21.13
2019-03-21T18:25:30.085Z,21.93
2019-03-21T18:28:16.532Z,21.83
2019-03-21T18:31:02.938Z,22.47
2019-03-21T18:33:49.065Z,21.70
2019-03-21T18:36:35.247Z,21.73
2019-03-21T18:39:21.302Z,22.10
2019-03-21T18:42:07.864Z,23.33
2019-03-21T18:44:54.792Z,24.60
2019-03-21T18:47:41.265Z,28.87
2019-03-21T18:50:27.748Z,27.23
2019-03-21T18:53:14.319Z,22.53
2019-03-21T18:56:05.041Z,23.27
2019-03-21T18:58:51.651Z,27.20
2019-03-21T19:01:37.955Z,37.90
2019-03-21T19:04:25.280Z,26.80
2019-03-21T19:07:12.298Z,32.87
2019-03-21T19:09:58.661Z,37.70
2019-03-21T19:12:46.054Z,24.87
2019-03-21T19:15:32.519Z,30.23
2019-03-21T19:18:18.785Z,30.30
2019-03-21T19:21:04.800Z,32.80
2019-03-21T19:23:50.967Z,26.10
2019-03-21T19:26:37.501Z,27.27
2019-03-21T19:29:24.090Z,31.90
2019-03-21T19:32:10.168Z,28.03
2019-03-21T19:34:57.766Z,28.80
2019-03-21T19:37:44.920Z,30.63
2019-03-21T19:40:31.695Z,34.00
2019-03-21T19:43:17.776Z,27.87
2019-03-21T19:46:04.403Z,26.87
2019-03-21T19:48:50.712Z,27.33
2019-03-21T19:51:40.016Z,27.47
2019-03-21T19:54:26.559Z,27.80
2019-03-21T19:57:12.782Z,28.87
2019-03-21T19:59:58.719Z,28.37
2019-03-21T20:02:46.392Z,30.47
2019-03-21T20:05:32.988Z,30.77
2019-03-21T20:08:19.540Z,31.30
2019-03-21T20:11:06.273Z,27.07
2019-03-21T20:13:52.665Z,27.37
2019-03-21T20:16:38.842Z,30.03
2019-03-21T20:19:25.460Z,31.03
2019-03-21T20:22:12.262Z,32.90
2019-03-21T20:24:58.623Z,30.77
2019-03-21T20:27:44.751Z,33.97
2019-03-21T20:30:31.224Z,37.87
2019-03-21T20:33:17.869Z,36.33
2019-03-21T20:36:04.047Z,36.37
2019-03-21T20:38:50.841Z,37.20
2019-03-21T20:41:37.116Z,33.83
2019-03-21T20:44:24.802Z,34.53
2019-03-21T20:47:10.967Z,33.40
2019-03-21T20:49:56.982Z,31.67
2019-03-21T20:52:43.602Z,33.83
2019-03-21T20:55:30.027Z,34.17
2019-03-21T20:58:16.135Z,35.57
2019-03-21T21:01:03.623Z,34.73
2019-03-21T21:03:50.966Z,36.97
2019-03-21T21:06:37.217Z,38.57
2019-03-21T21:09:23.955Z,38.30
2019-03-21T21:12:10.031Z,34.33
2019-03-21T21:14:56.203Z,35.20
2019-03-21T21:17:43.382Z,32.77
2019-03-21T21:20:29.728Z,36.50
2019-03-21T21:23:15.824Z,38.27
2019-03-21T21:26:05.744Z,36.67
2019-03-21T21:28:50.263Z,41.07
2019-03-21T21:31:36.915Z,38.00
2019-03-21T21:34:23.227Z,38.57
2019-03-21T21:37:09.703Z,41.47
2019-03-21T21:39:56.646Z,37.43
2019-03-21T21:42:42.948Z,39.93
2019-03-21T21:45:29.963Z,41.60
2019-03-21T21:48:17.167Z,40.87
2019-03-21T21:51:04.215Z,40.03
2019-03-21T21:53:50.636Z,38.17
2019-03-21T21:56:36.939Z,42.87
2019-03-21T21:59:23.338Z,43.43
2019-03-21T22:02:09.876Z,41.13
2019-03-21T22:04:56.625Z,44.27
2019-03-21T22:07:43.251Z,44.77
2019-03-21T22:10:29.800Z,42.17
2019-03-21T22:13:15.911Z,44.83
2019-03-21T22:16:02.175Z,47.53
2019-03-21T22:18:48.779Z,48.33
2019-03-21T22:21:35.142Z,50.20
2019-03-21T22:24:21.205Z,45.47
2019-03-21T22:27:07.376Z,41.90
2019-03-21T22:29:53.367Z,41.63
2019-03-21T22:32:40.704Z,42.77
2019-03-21T22:35:26.903Z,40.70
2019-03-21T22:38:13.059Z,43.13
2019-03-21T22:41:00.300Z,43.37
2019-03-21T22:43:46.534Z,45.00
2019-03-21T22:46:33.815Z,45.77
2019-03-21T22:49:20.731Z,42.77
2019-03-21T22:52:06.663Z,44.73
2019-03-21T22:54:53.290Z,45.33
2019-03-21T22:57:39.618Z,46.40
